sensor_id;sensor_type;location;lat;lon;timestamp;P1;durP1;ratioP1;P2;durP2;ratioP2
5135;SDS011;2586;48.710;9.202;2023-04-15T00:01:18;4.90;;;1.53;;
5135;SDS011;2586;48.710;9.202;2023-04-15T00:03:44;6.00;;;1.90;;
5135;SDS011;2586;48.710;9.202;2023-04-15T00:06:12;5.43;;;2.07;;
5135;SDS011;2586;48.710;9.202;2023-04-15T00:08:38;2.03;;;1.70;;
5135;SDS011;2586;48.710;9.202;2023-04-15T00:11:05;3.67;;;1.60;;
5135;SDS011;2586;48.710;9.202;2023-04-15T00:13:31;6.33;;;2.20;;
5135;SDS011;2586;48.710;9.202;2023-04-15T00:15:58;3.73;;;1.70;;
5135;SDS011;2586;48.710;9.202;2023-04-15T00:18:23;4.10;;;1.73;;
5135;SDS011;2586;48.710;9.202;2023-04-15T00:20:49;3.50;;;1.47;;
5135;SDS011;2586;48.710;9.202;2023-04-15T00:23:15;5.67;;;2.60;;
5135;SDS011;2586;48.710;9.202;2023-04-15T00:25:40;2.77;;;1.87;;
5135;SDS011;2586;48.710;9.202;2023-04-15T00:28:06;3.67;;;2.30;;
5135;SDS011;2586;48.710;9.202;2023-04-15T00:30:32;1.87;;;1.77;;
5135;SDS011;2586;48.710;9.202;2023-04-15T00:32:58;2.80;;;1.77;;
5135;SDS011;2586;48.710;9.202;2023-04-15T00:35:23;3.17;;;1.63;;
5135;SDS011;2586;48.710;9.202;2023-04-15T00:37:49;7.03;;;2.30;;
5135;SDS011;2586;48.710;9.202;2023-04-15T00:40:16;5.73;;;2.23;;
5135;SDS011;2586;48.710;9.202;2023-04-15T00:42:43;7.90;;;2.17;;
5135;SDS011;2586;48.710;9.202;2023-04-15T00:45:09;3.13;;;2.20;;
5135;SDS011;2586;48.710;9.202;2023-04-15T00:47:36;7.13;;;1.80;;
5135;SDS011;2586;48.710;9.202;2023-04-15T00:50:03;11.10;;;1.70;;
5135;SDS011;2586;48.710;9.202;2023-04-15T00:52:29;4.30;;;2.03;;
5135;SDS011;2586;48.710;9.202;2023-04-15T00:54:54;1.97;;;1.87;;
5135;SDS011;2586;48.710;9.202;2023-04-15T00:57:20;3.80;;;2.40;;
5135;SDS011;2586;48.710;9.202;2023-04-15T00:59:46;6.87;;;2.67;;
5135;SDS011;2586;48.710;9.202;2023-04-15T01:02:12;8.83;;;2.80;;
5135;SDS011;2586;48.710;9.202;2023-04-15T01:04:39;8.80;;;2.80;;
5135;SDS011;2586;48.710;9.202;2023-04-15T01:07:05;2.00;;;1.77;;
5135;SDS011;2586;48.710;9.202;2023-04-15T01:09:31;8.10;;;2.40;;
5135;SDS011;2586;48.710;9.202;2023-04-15T01:11:57;7.37;;;2.50;;
5135;SDS011;2586;48.710;9.202;2023-04-15T01:14:23;5.33;;;3.23;;
5135;SDS011;2586;48.710;9.202;2023-04-15T01:16:49;5.70;;;2.73;;
5135;SDS011;2586;48.710;9.202;2023-04-15T01:19:17;7.77;;;2.07;;
5135;SDS011;2586;48.710;9.202;2023-04-15T01:21:43;4.93;;;2.20;;
5135;SDS011;2586;48.710;9.202;2023-04-15T01:24:09;3.33;;;2.13;;
5135;SDS011;2586;48.710;9.202;2023-04-15T01:26:37;3.67;;;1.90;;
5135;SDS011;2586;48.710;9.202;2023-04-15T01:29:04;5.43;;;2.13;;
5135;SDS011;2586;48.710;9.202;2023-04-15T01:31:30;8.13;;;2.53;;
5135;SDS011;2586;48.710;9.202;2023-04-15T01:33:57;13.43;;;2.30;;
5135;SDS011;2586;48.710;9.202;2023-04-15T01:36:24;4.00;;;2.50;;
5135;SDS011;2586;48.710;9.202;2023-04-15T01:38:50;6.30;;;2.70;;
5135;SDS011;2586;48.710;9.202;2023-04-15T01:41:16;5.03;;;1.60;;
5135;SDS011;2586;48.710;9.202;2023-04-15T01:43:45;5.27;;;3.03;;
5135;SDS011;2586;48.710;9.202;2023-04-15T01:46:11;3.37;;;2.80;;
5135;SDS011;2586;48.710;9.202;2023-04-15T01:48:36;4.80;;;2.10;;
5135;SDS011;2586;48.710;9.202;2023-04-15T01:51:02;15.77;;;2.10;;
5135;SDS011;2586;48.710;9.202;2023-04-15T01:53:27;10.70;;;2.50;;
5135;SDS011;2586;48.710;9.202;2023-04-15T01:55:53;6.80;;;1.90;;
5135;SDS011;2586;48.710;9.202;2023-04-15T01:58:19;9.93;;;2.53;;
5135;SDS011;2586;48.710;9.202;2023-04-15T02:00:44;6.93;;;2.43;;
5135;SDS011;2586;48.710;9.202;2023-04-15T02:03:10;8.13;;;2.33;;
5135;SDS011;2586;48.710;9.202;2023-04-15T02:05:35;3.83;;;2.00;;
5135;SDS011;2586;48.710;9.202;2023-04-15T02:08:01;2.20;;;1.97;;
5135;SDS011;2586;48.710;9.202;2023-04-15T02:10:27;13.70;;;2.43;;
5135;SDS011;2586;48.710;9.202;2023-04-15T02:12:53;6.43;;;2.87;;
5135;SDS011;2586;48.710;9.202;2023-04-15T02:15:19;3.40;;;2.20;;
5135;SDS011;2586;48.710;9.202;2023-04-15T02:17:44;12.13;;;2.20;;
5135;SDS011;2586;48.710;9.202;2023-04-15T02:20:14;9.50;;;2.40;;
5135;SDS011;2586;48.710;9.202;2023-04-15T02:22:40;11.10;;;2.40;;
5135;SDS011;2586;48.710;9.202;2023-04-15T02:25:06;6.30;;;3.13;;
5135;SDS011;2586;48.710;9.202;2023-04-15T02:27:37;4.77;;;2.67;;
5135;SDS011;2586;48.710;9.202;2023-04-15T02:30:02;5.20;;;2.87;;
5135;SDS011;2586;48.710;9.202;2023-04-15T02:32:28;4.93;;;2.70;;
5135;SDS011;2586;48.710;9.202;2023-04-15T02:34:54;9.53;;;2.87;;
5135;SDS011;2586;48.710;9.202;2023-04-15T02:37:19;11.07;;;3.03;;
5135;SDS011;2586;48.710;9.202;2023-04-15T02:39:45;9.10;;;3.03;;
5135;SDS011;2586;48.710;9.202;2023-04-15T02:42:11;4.10;;;2.97;;
5135;SDS011;2586;48.710;9.202;2023-04-15T02:44:37;4.20;;;2.40;;
5135;SDS011;2586;48.710;9.202;2023-04-15T02:47:02;6.50;;;2.80;;
5135;SDS011;2586;48.710;9.202;2023-04-15T02:49:30;6.27;;;2.80;;
5135;SDS011;2586;48.710;9.202;2023-04-15T02:51:56;5.90;;;3.47;;
5135;SDS011;2586;48.710;9.202;2023-04-15T02:54:24;4.90;;;2.40;;
5135;SDS011;2586;48.710;9.202;2023-04-15T02:56:53;6.63;;;3.17;;
5135;SDS011;2586;48.710;9.202;2023-04-15T02:59:20;6.90;;;3.00;;
5135;SDS011;2586;48.710;9.202;2023-04-15T03:01:46;9.90;;;2.30;;
5135;SDS011;2586;48.710;9.202;2023-04-15T03:04:11;4.63;;;3.87;;
5135;SDS011;2586;48.710;9.202;2023-04-15T03:06:38;10.57;;;4.80;;
5135;SDS011;2586;48.710;9.202;2023-04-15T03:09:03;6.83;;;3.87;;
5135;SDS011;2586;48.710;9.202;2023-04-15T03:11:31;2.90;;;2.20;;
5135;SDS011;2586;48.710;9.202;2023-04-15T03:13:57;6.47;;;3.47;;
5135;SDS011;2586;48.710;9.202;2023-04-15T03:16:23;4.20;;;2.30;;
5135;SDS011;2586;48.710;9.202;2023-04-15T03:18:48;7.30;;;3.53;;
5135;SDS011;2586;48.710;9.202;2023-04-15T03:21:14;8.70;;;2.70;;
5135;SDS011;2586;48.710;9.202;2023-04-15T03:23:40;4.90;;;2.80;;
5135;SDS011;2586;48.710;9.202;2023-04-15T03:26:06;7.13;;;2.67;;
5135;SDS011;2586;48.710;9.202;2023-04-15T03:28:31;7.63;;;2.37;;
5135;SDS011;2586;48.710;9.202;2023-04-15T03:30:57;9.23;;;2.87;;
5135;SDS011;2586;48.710;9.202;2023-04-15T03:33:23;7.30;;;3.13;;
5135;SDS011;2586;48.710;9.202;2023-04-15T03:35:49;5.70;;;2.50;;
5135;SDS011;2586;48.710;9.202;2023-04-15T03:38:15;6.30;;;2.90;;
5135;SDS011;2586;48.710;9.202;2023-04-15T03:40:41;14.60;;;2.80;;
5135;SDS011;2586;48.710;9.202;2023-04-15T03:43:07;11.00;;;3.20;;
5135;SDS011;2586;48.710;9.202;2023-04-15T03:45:33;8.83;;;3.90;;
5135;SDS011;2586;48.710;9.202;2023-04-15T03:47:58;6.33;;;3.20;;
5135;SDS011;2586;48.710;9.202;2023-04-15T03:50:25;10.93;;;4.67;;
5135;SDS011;2586;48.710;9.202;2023-04-15T03:52:51;6.37;;;3.47;;
5135;SDS011;2586;48.710;9.202;2023-04-15T03:55:20;12.00;;;3.47;;
5135;SDS011;2586;48.710;9.202;2023-04-15T03:57:45;6.23;;;2.80;;
5135;SDS011;2586;48.710;9.202;2023-04-15T04:00:11;5.00;;;3.13;;
5135;SDS011;2586;48.710;9.202;2023-04-15T04:02:37;6.53;;;3.63;;
5135;SDS011;2586;48.710;9.202;2023-04-15T04:05:02;6.00;;;2.63;;
5135;SDS011;2586;48.710;9.202;2023-04-15T04:07:28;6.93;;;3.80;;
5135;SDS011;2586;48.710;9.202;2023-04-15T04:09:56;5.57;;;2.73;;
5135;SDS011;2586;48.710;9.202;2023-04-15T04:12:21;18.13;;;3.37;;
5135;SDS011;2586;48.710;9.202;2023-04-15T04:14:47;2.90;;;2.10;;
5135;SDS011;2586;48.710;9.202;2023-04-15T04:17:13;7.03;;;2.53;;
5135;SDS011;2586;48.710;9.202;2023-04-15T04:19:39;7.80;;;2.37;;
5135;SDS011;2586;48.710;9.202;2023-04-15T04:22:05;5.17;;;2.70;;
5135;SDS011;2586;48.710;9.202;2023-04-15T04:24:31;8.00;;;2.50;;
5135;SDS011;2586;48.710;9.202;2023-04-15T04:26:57;7.53;;;3.60;;
5135;SDS011;2586;48.710;9.202;2023-04-15T04:29:22;10.60;;;3.20;;
5135;SDS011;2586;48.710;9.202;2023-04-15T04:31:48;5.87;;;3.67;;
5135;SDS011;2586;48.710;9.202;2023-04-15T04:34:14;8.33;;;3.03;;
5135;SDS011;2586;48.710;9.202;2023-04-15T04:36:40;5.47;;;3.10;;
5135;SDS011;2586;48.710;9.202;2023-04-15T04:39:05;8.67;;;3.87;;
5135;SDS011;2586;48.710;9.202;2023-04-15T04:41:31;8.77;;;3.57;;
5135;SDS011;2586;48.710;9.202;2023-04-15T04:43:57;8.63;;;3.30;;
5135;SDS011;2586;48.710;9.202;2023-04-15T04:46:23;10.60;;;3.87;;
5135;SDS011;2586;48.710;9.202;2023-04-15T04:48:48;4.00;;;2.80;;
5135;SDS011;2586;48.710;9.202;2023-04-15T04:51:14;9.30;;;3.23;;
5135;SDS011;2586;48.710;9.202;2023-04-15T04:53:40;6.50;;;3.40;;
5135;SDS011;2586;48.710;9.202;2023-04-15T04:56:07;7.93;;;2.93;;
5135;SDS011;2586;48.710;9.202;2023-04-15T04:58:32;2.50;;;2.27;;
5135;SDS011;2586;48.710;9.202;2023-04-15T05:00:58;2.57;;;2.37;;
5135;SDS011;2586;48.710;9.202;2023-04-15T05:03:24;8.30;;;3.20;;
5135;SDS011;2586;48.710;9.202;2023-04-15T05:05:51;4.77;;;3.03;;
5135;SDS011;2586;48.710;9.202;2023-04-15T05:08:16;3.73;;;2.97;;
5135;SDS011;2586;48.710;9.202;2023-04-15T05:10:42;6.90;;;2.83;;
5135;SDS011;2586;48.710;9.202;2023-04-15T05:13:08;10.97;;;3.17;;
5135;SDS011;2586;48.710;9.202;2023-04-15T05:15:33;4.43;;;3.10;;
5135;SDS011;2586;48.710;9.202;2023-04-15T05:18:00;9.33;;;3.97;;
5135;SDS011;2586;48.710;9.202;2023-04-15T05:20:26;6.77;;;3.53;;
5135;SDS011;2586;48.710;9.202;2023-04-15T05:22:52;9.00;;;3.90;;
5135;SDS011;2586;48.710;9.202;2023-04-15T05:25:18;9.47;;;4.80;;
5135;SDS011;2586;48.710;9.202;2023-04-15T05:27:43;5.67;;;4.30;;
5135;SDS011;2586;48.710;9.202;2023-04-15T05:30:09;14.63;;;4.63;;
5135;SDS011;2586;48.710;9.202;2023-04-15T05:32:36;9.07;;;5.10;;
5135;SDS011;2586;48.710;9.202;2023-04-15T05:35:02;13.93;;;4.40;;
5135;SDS011;2586;48.710;9.202;2023-04-15T05:37:27;9.93;;;4.33;;
5135;SDS011;2586;48.710;9.202;2023-04-15T05:39:53;7.47;;;3.90;;
5135;SDS011;2586;48.710;9.202;2023-04-15T05:42:18;12.73;;;4.80;;
5135;SDS011;2586;48.710;9.202;2023-04-15T05:44:44;10.20;;;2.90;;
5135;SDS011;2586;48.710;9.202;2023-04-15T05:47:10;4.20;;;3.60;;
5135;SDS011;2586;48.710;9.202;2023-04-15T05:49:35;9.33;;;3.93;;
5135;SDS011;2586;48.710;9.202;2023-04-15T05:52:01;4.60;;;4.10;;
5135;SDS011;2586;48.710;9.202;2023-04-15T05:54:27;8.53;;;3.67;;
5135;SDS011;2586;48.710;9.202;2023-04-15T05:56:53;7.10;;;4.30;;
5135;SDS011;2586;48.710;9.202;2023-04-15T05:59:18;9.73;;;5.20;;
5135;SDS011;2586;48.710;9.202;2023-04-15T06:01:44;8.43;;;5.33;;
5135;SDS011;2586;48.710;9.202;2023-04-15T06:04:10;13.53;;;5.37;;
5135;SDS011;2586;48.710;9.202;2023-04-15T06:06:36;8.50;;;4.20;;
5135;SDS011;2586;48.710;9.202;2023-04-15T06:09:02;9.90;;;4.90;;
5135;SDS011;2586;48.710;9.202;2023-04-15T06:11:28;11.23;;;5.07;;
5135;SDS011;2586;48.710;9.202;2023-04-15T06:13:53;8.67;;;5.70;;
5135;SDS011;2586;48.710;9.202;2023-04-15T06:16:19;19.13;;;6.20;;
5135;SDS011;2586;48.710;9.202;2023-04-15T06:18:47;10.77;;;4.70;;
5135;SDS011;2586;48.710;9.202;2023-04-15T06:21:12;9.20;;;4.40;;
5135;SDS011;2586;48.710;9.202;2023-04-15T06:23:39;14.40;;;5.73;;
5135;SDS011;2586;48.710;9.202;2023-04-15T06:26:05;17.23;;;6.30;;
5135;SDS011;2586;48.710;9.202;2023-04-15T06:28:31;11.37;;;5.30;;
5135;SDS011;2586;48.710;9.202;2023-04-15T06:30:56;16.30;;;5.27;;
5135;SDS011;2586;48.710;9.202;2023-04-15T06:33:22;13.73;;;5.27;;
5135;SDS011;2586;48.710;9.202;2023-04-15T06:35:48;5.60;;;4.23;;
5135;SDS011;2586;48.710;9.202;2023-04-15T06:38:14;20.97;;;4.87;;
5135;SDS011;2586;48.710;9.202;2023-04-15T06:40:40;8.07;;;4.80;;
5135;SDS011;2586;48.710;9.202;2023-04-15T06:43:06;9.10;;;3.80;;
5135;SDS011;2586;48.710;9.202;2023-04-15T06:45:32;15.83;;;5.00;;
5135;SDS011;2586;48.710;9.202;2023-04-15T06:47:57;9.30;;;4.03;;
5135;SDS011;2586;48.710;9.202;2023-04-15T06:50:24;9.27;;;4.57;;
5135;SDS011;2586;48.710;9.202;2023-04-15T06:52:52;8.87;;;4.33;;
5135;SDS011;2586;48.710;9.202;2023-04-15T06:55:19;6.70;;;4.77;;
5135;SDS011;2586;48.710;9.202;2023-04-15T06:57:45;8.40;;;4.87;;
5135;SDS011;2586;48.710;9.202;2023-04-15T07:00:11;13.67;;;4.80;;
5135;SDS011;2586;48.710;9.202;2023-04-15T07:02:37;12.83;;;5.70;;
5135;SDS011;2586;48.710;9.202;2023-04-15T07:05:03;6.37;;;3.70;;
5135;SDS011;2586;48.710;9.202;2023-04-15T07:07:30;9.23;;;4.83;;
5135;SDS011;2586;48.710;9.202;2023-04-15T07:09:55;10.87;;;5.00;;
5135;SDS011;2586;48.710;9.202;2023-04-15T07:12:21;13.37;;;5.47;;
5135;SDS011;2586;48.710;9.202;2023-04-15T07:14:46;7.47;;;3.50;;
5135;SDS011;2586;48.710;9.202;2023-04-15T07:17:13;12.33;;;3.67;;
5135;SDS011;2586;48.710;9.202;2023-04-15T07:19:39;10.97;;;4.07;;
5135;SDS011;2586;48.710;9.202;2023-04-15T07:22:04;5.57;;;3.80;;
5135;SDS011;2586;48.710;9.202;2023-04-15T07:24:30;8.97;;;3.70;;
5135;SDS011;2586;48.710;9.202;2023-04-15T07:26:56;15.50;;;4.07;;
5135;SDS011;2586;48.710;9.202;2023-04-15T07:29:22;8.83;;;3.50;;
5135;SDS011;2586;48.710;9.202;2023-04-15T07:31:48;4.50;;;3.70;;
5135;SDS011;2586;48.710;9.202;2023-04-15T07:34:14;12.10;;;3.07;;
5135;SDS011;2586;48.710;9.202;2023-04-15T07:36:40;4.93;;;4.03;;
5135;SDS011;2586;48.710;9.202;2023-04-15T07:39:07;3.83;;;3.30;;
5135;SDS011;2586;48.710;9.202;2023-04-15T07:41:34;10.57;;;4.37;;
5135;SDS011;2586;48.710;9.202;2023-04-15T07:43:59;7.20;;;4.00;;
5135;SDS011;2586;48.710;9.202;2023-04-15T07:46:25;9.30;;;3.93;;
5135;SDS011;2586;48.710;9.202;2023-04-15T07:48:53;6.10;;;3.50;;
5135;SDS011;2586;48.710;9.202;2023-04-15T07:51:19;12.63;;;3.60;;
5135;SDS011;2586;48.710;9.202;2023-04-15T07:53:45;7.10;;;3.33;;
5135;SDS011;2586;48.710;9.202;2023-04-15T07:56:12;9.57;;;3.90;;
5135;SDS011;2586;48.710;9.202;2023-04-15T07:58:38;9.67;;;3.30;;
5135;SDS011;2586;48.710;9.202;2023-04-15T08:01:04;9.90;;;4.07;;
5135;SDS011;2586;48.710;9.202;2023-04-15T08:03:29;7.67;;;3.97;;
5135;SDS011;2586;48.710;9.202;2023-04-15T08:05:55;8.37;;;3.70;;
5135;SDS011;2586;48.710;9.202;2023-04-15T08:08:21;11.63;;;4.10;;
5135;SDS011;2586;48.710;9.202;2023-04-15T08:10:47;6.73;;;4.23;;
5135;SDS011;2586;48.710;9.202;2023-04-15T08:13:12;8.47;;;4.07;;
5135;SDS011;2586;48.710;9.202;2023-04-15T08:15:38;9.40;;;3.70;;
5135;SDS011;2586;48.710;9.202;2023-04-15T08:18:03;8.33;;;4.13;;
5135;SDS011;2586;48.710;9.202;2023-04-15T08:20:29;8.93;;;3.70;;
5135;SDS011;2586;48.710;9.202;2023-04-15T08:22:55;15.40;;;5.20;;
5135;SDS011;2586;48.710;9.202;2023-04-15T08:25:21;4.93;;;3.10;;
5135;SDS011;2586;48.710;9.202;2023-04-15T08:27:47;17.37;;;4.60;;
5135;SDS011;2586;48.710;9.202;2023-04-15T08:30:12;9.53;;;4.17;;
5135;SDS011;2586;48.710;9.202;2023-04-15T08:32:38;9.27;;;3.77;;
5135;SDS011;2586;48.710;9.202;2023-04-15T08:35:04;8.60;;;3.90;;
5135;SDS011;2586;48.710;9.202;2023-04-15T08:37:30;6.97;;;3.27;;
5135;SDS011;2586;48.710;9.202;2023-04-15T08:39:56;8.30;;;3.20;;
5135;SDS011;2586;48.710;9.202;2023-04-15T08:42:29;20.20;;;3.87;;
5135;SDS011;2586;48.710;9.202;2023-04-15T08:44:59;10.23;;;3.80;;
5135;SDS011;2586;48.710;9.202;2023-04-15T08:47:25;9.03;;;3.97;;
5135;SDS011;2586;48.710;9.202;2023-04-15T08:49:55;9.20;;;4.03;;
5135;SDS011;2586;48.710;9.202;2023-04-15T08:52:23;4.23;;;3.57;;
5135;SDS011;2586;48.710;9.202;2023-04-15T08:54:55;13.57;;;3.80;;
5135;SDS011;2586;48.710;9.202;2023-04-15T08:57:25;10.83;;;2.83;;
5135;SDS011;2586;48.710;9.202;2023-04-15T08:59:55;8.50;;;4.13;;
5135;SDS011;2586;48.710;9.202;2023-04-15T09:02:22;6.63;;;3.40;;
5135;SDS011;2586;48.710;9.202;2023-04-15T09:04:50;10.63;;;3.87;;
5135;SDS011;2586;48.710;9.202;2023-04-15T09:07:15;5.90;;;3.53;;
5135;SDS011;2586;48.710;9.202;2023-04-15T09:09:41;9.67;;;3.43;;
5135;SDS011;2586;48.710;9.202;2023-04-15T09:12:07;9.83;;;3.20;;
5135;SDS011;2586;48.710;9.202;2023-04-15T09:14:34;4.50;;;2.93;;
5135;SDS011;2586;48.710;9.202;2023-04-15T09:17:03;7.57;;;3.77;;
5135;SDS011;2586;48.710;9.202;2023-04-15T09:19:29;10.70;;;3.43;;
5135;SDS011;2586;48.710;9.202;2023-04-15T09:21:56;6.60;;;3.93;;
5135;SDS011;2586;48.710;9.202;2023-04-15T09:24:23;5.20;;;3.23;;
5135;SDS011;2586;48.710;9.202;2023-04-15T09:26:53;4.20;;;2.50;;
5135;SDS011;2586;48.710;9.202;2023-04-15T09:29:23;4.47;;;2.23;;
5135;SDS011;2586;48.710;9.202;2023-04-15T09:31:50;7.20;;;3.37;;
5135;SDS011;2586;48.710;9.202;2023-04-15T09:34:16;5.50;;;2.87;;
5135;SDS011;2586;48.710;9.202;2023-04-15T09:36:50;7.70;;;2.73;;
5135;SDS011;2586;48.710;9.202;2023-04-15T09:39:18;5.67;;;2.00;;
5135;SDS011;2586;48.710;9.202;2023-04-15T09:41:43;3.40;;;2.33;;
5135;SDS011;2586;48.710;9.202;2023-04-15T09:44:22;5.90;;;1.43;;
5135;SDS011;2586;48.710;9.202;2023-04-15T09:46:49;13.50;;;1.70;;
5135;SDS011;2586;48.710;9.202;2023-04-15T09:49:14;5.00;;;1.53;;
5135;SDS011;2586;48.710;9.202;2023-04-15T09:51:41;2.50;;;1.57;;
5135;SDS011;2586;48.710;9.202;2023-04-15T09:54:08;5.67;;;2.00;;
5135;SDS011;2586;48.710;9.202;2023-04-15T09:56:34;3.90;;;2.60;;
5135;SDS011;2586;48.710;9.202;2023-04-15T09:59:06;4.40;;;2.20;;
5135;SDS011;2586;48.710;9.202;2023-04-15T10:01:32;6.10;;;2.20;;
5135;SDS011;2586;48.710;9.202;2023-04-15T10:03:58;2.40;;;1.87;;
5135;SDS011;2586;48.710;9.202;2023-04-15T10:06:29;4.73;;;1.70;;
5135;SDS011;2586;48.710;9.202;2023-04-15T10:08:56;6.43;;;2.23;;
5135;SDS011;2586;48.710;9.202;2023-04-15T10:11:22;2.07;;;1.50;;
5135;SDS011;2586;48.710;9.202;2023-04-15T10:13:49;14.00;;;2.47;;
5135;SDS011;2586;48.710;9.202;2023-04-15T10:16:18;2.90;;;1.33;;
5135;SDS011;2586;48.710;9.202;2023-04-15T10:18:45;6.77;;;2.80;;
5135;SDS011;2586;48.710;9.202;2023-04-15T10:21:15;4.97;;;1.80;;
5135;SDS011;2586;48.710;9.202;2023-04-15T10:23:42;5.03;;;1.80;;
5135;SDS011;2586;48.710;9.202;2023-04-15T10:26:09;6.37;;;1.77;;
5135;SDS011;2586;48.710;9.202;2023-04-15T10:28:37;3.77;;;1.83;;
5135;SDS011;2586;48.710;9.202;2023-04-15T10:31:02;4.30;;;1.87;;
5135;SDS011;2586;48.710;9.202;2023-04-15T10:33:29;1.37;;;1.27;;
5135;SDS011;2586;48.710;9.202;2023-04-15T10:35:56;3.87;;;1.63;;
5135;SDS011;2586;48.710;9.202;2023-04-15T10:38:38;9.73;;;2.60;;
5135;SDS011;2586;48.710;9.202;2023-04-15T10:41:11;3.90;;;1.77;;
5135;SDS011;2586;48.710;9.202;2023-04-15T10:43:38;12.53;;;1.83;;
5135;SDS011;2586;48.710;9.202;2023-04-15T10:46:09;3.60;;;1.33;;
5135;SDS011;2586;48.710;9.202;2023-04-15T10:48:34;5.63;;;2.37;;
5135;SDS011;2586;48.710;9.202;2023-04-15T10:51:00;2.20;;;1.63;;
5135;SDS011;2586;48.710;9.202;2023-04-15T10:53:29;5.70;;;2.03;;
5135;SDS011;2586;48.710;9.202;2023-04-15T10:55:56;3.87;;;1.80;;
5135;SDS011;2586;48.710;9.202;2023-04-15T10:58:22;6.50;;;2.43;;
5135;SDS011;2586;48.710;9.202;2023-04-15T11:00:49;3.33;;;2.17;;
5135;SDS011;2586;48.710;9.202;2023-04-15T11:03:20;4.93;;;1.97;;
5135;SDS011;2586;48.710;9.202;2023-04-15T11:06:03;9.93;;;2.50;;
5135;SDS011;2586;48.710;9.202;2023-04-15T11:11:23;8.40;;;1.97;;
5135;SDS011;2586;48.710;9.202;2023-04-15T11:14:26;5.53;;;1.70;;
5135;SDS011;2586;48.710;9.202;2023-04-15T11:16:52;4.13;;;1.97;;
5135;SDS011;2586;48.710;9.202;2023-04-15T11:19:18;5.87;;;2.00;;
5135;SDS011;2586;48.710;9.202;2023-04-15T11:21:43;2.43;;;1.63;;
5135;SDS011;2586;48.710;9.202;2023-04-15T11:24:09;4.27;;;2.50;;
5135;SDS011;2586;48.710;9.202;2023-04-15T11:26:34;3.93;;;2.50;;
5135;SDS011;2586;48.710;9.202;2023-04-15T11:29:00;8.53;;;2.00;;
5135;SDS011;2586;48.710;9.202;2023-04-15T11:31:27;6.87;;;2.77;;
5135;SDS011;2586;48.710;9.202;2023-04-15T11:33:56;5.87;;;2.40;;
5135;SDS011;2586;48.710;9.202;2023-04-15T11:36:24;5.00;;;2.67;;
5135;SDS011;2586;48.710;9.202;2023-04-15T11:38:53;6.13;;;2.60;;
5135;SDS011;2586;48.710;9.202;2023-04-15T11:41:20;3.33;;;2.40;;
5135;SDS011;2586;48.710;9.202;2023-04-15T11:43:48;3.63;;;2.20;;
5135;SDS011;2586;48.710;9.202;2023-04-15T11:46:14;4.10;;;2.27;;
5135;SDS011;2586;48.710;9.202;2023-04-15T11:48:41;5.30;;;2.50;;
5135;SDS011;2586;48.710;9.202;2023-04-15T11:51:08;6.53;;;1.90;;
5135;SDS011;2586;48.710;9.202;2023-04-15T11:53:42;5.87;;;2.40;;
5135;SDS011;2586;48.710;9.202;2023-04-15T11:56:10;7.80;;;2.10;;
5135;SDS011;2586;48.710;9.202;2023-04-15T11:58:41;4.60;;;1.70;;
5135;SDS011;2586;48.710;9.202;2023-04-15T12:01:07;4.70;;;2.07;;
5135;SDS011;2586;48.710;9.202;2023-04-15T12:03:37;4.40;;;2.63;;
5135;SDS011;2586;48.710;9.202;2023-04-15T12:16:40;6.80;;;3.40;;
5135;SDS011;2586;48.710;9.202;2023-04-15T12:19:09;6.37;;;2.90;;
5135;SDS011;2586;48.710;9.202;2023-04-15T12:21:37;9.97;;;3.70;;
5135;SDS011;2586;48.710;9.202;2023-04-15T12:24:06;9.10;;;3.77;;
5135;SDS011;2586;48.710;9.202;2023-04-15T12:26:34;5.97;;;3.10;;
5135;SDS011;2586;48.710;9.202;2023-04-15T12:29:11;3.80;;;2.57;;
5135;SDS011;2586;48.710;9.202;2023-04-15T12:31:50;4.07;;;2.50;;
5135;SDS011;2586;48.710;9.202;2023-04-15T12:34:30;6.27;;;2.90;;
5135;SDS011;2586;48.710;9.202;2023-04-15T12:36:58;4.87;;;2.50;;
5135;SDS011;2586;48.710;9.202;2023-04-15T12:39:24;3.53;;;2.67;;
5135;SDS011;2586;48.710;9.202;2023-04-15T12:41:51;5.90;;;3.17;;
5135;SDS011;2586;48.710;9.202;2023-04-15T12:44:17;3.57;;;2.10;;
5135;SDS011;2586;48.710;9.202;2023-04-15T12:46:43;3.20;;;2.20;;
5135;SDS011;2586;48.710;9.202;2023-04-15T12:49:09;2.70;;;2.47;;
5135;SDS011;2586;48.710;9.202;2023-04-15T12:51:35;5.03;;;2.40;;
5135;SDS011;2586;48.710;9.202;2023-04-15T12:54:00;4.07;;;2.40;;
5135;SDS011;2586;48.710;9.202;2023-04-15T12:56:26;6.93;;;2.80;;
5135;SDS011;2586;48.710;9.202;2023-04-15T12:58:51;7.17;;;2.97;;
5135;SDS011;2586;48.710;9.202;2023-04-15T13:01:17;4.30;;;2.60;;
5135;SDS011;2586;48.710;9.202;2023-04-15T13:03:43;7.10;;;2.80;;
5135;SDS011;2586;48.710;9.202;2023-04-15T13:06:09;3.20;;;2.60;;
5135;SDS011;2586;48.710;9.202;2023-04-15T13:08:35;3.17;;;2.53;;
5135;SDS011;2586;48.710;9.202;2023-04-15T13:11:01;3.87;;;2.30;;
5135;SDS011;2586;48.710;9.202;2023-04-15T13:13:27;6.73;;;2.60;;
5135;SDS011;2586;48.710;9.202;2023-04-15T13:15:52;5.73;;;2.80;;
5135;SDS011;2586;48.710;9.202;2023-04-15T13:18:18;2.97;;;2.30;;
5135;SDS011;2586;48.710;9.202;2023-04-15T13:20:44;1.93;;;1.80;;
5135;SDS011;2586;48.710;9.202;2023-04-15T13:23:10;9.83;;;1.93;;
5135;SDS011;2586;48.710;9.202;2023-04-15T13:25:35;3.10;;;1.70;;
5135;SDS011;2586;48.710;9.202;2023-04-15T13:28:01;7.63;;;2.07;;
5135;SDS011;2586;48.710;9.202;2023-04-15T13:30:27;9.10;;;2.17;;
5135;SDS011;2586;48.710;9.202;2023-04-15T13:32:52;3.33;;;1.80;;
5135;SDS011;2586;48.710;9.202;2023-04-15T13:35:18;2.80;;;2.10;;
5135;SDS011;2586;48.710;9.202;2023-04-15T13:37:45;3.93;;;1.80;;
5135;SDS011;2586;48.710;9.202;2023-04-15T13:40:11;3.30;;;2.03;;
5135;SDS011;2586;48.710;9.202;2023-04-15T13:42:37;2.30;;;1.93;;
5135;SDS011;2586;48.710;9.202;2023-04-15T13:45:02;2.00;;;1.80;;
5135;SDS011;2586;48.710;9.202;2023-04-15T13:47:28;4.83;;;1.80;;
5135;SDS011;2586;48.710;9.202;2023-04-15T13:49:54;1.83;;;1.73;;
5135;SDS011;2586;48.710;9.202;2023-04-15T13:52:21;6.20;;;1.40;;
5135;SDS011;2586;48.710;9.202;2023-04-15T13:54:47;2.83;;;1.70;;
5135;SDS011;2586;48.710;9.202;2023-04-15T13:57:13;3.80;;;1.30;;
5135;SDS011;2586;48.710;9.202;2023-04-15T13:59:38;2.47;;;1.47;;
5135;SDS011;2586;48.710;9.202;2023-04-15T14:02:04;2.20;;;1.33;;
5135;SDS011;2586;48.710;9.202;2023-04-15T14:04:30;2.50;;;1.07;;
5135;SDS011;2586;48.710;9.202;2023-04-15T14:06:56;1.30;;;1.20;;
5135;SDS011;2586;48.710;9.202;2023-04-15T14:09:22;1.33;;;0.80;;
5135;SDS011;2586;48.710;9.202;2023-04-15T14:11:51;3.17;;;1.60;;
5135;SDS011;2586;48.710;9.202;2023-04-15T14:14:17;2.03;;;1.40;;
5135;SDS011;2586;48.710;9.202;2023-04-15T14:16:42;1.47;;;1.17;;
5135;SDS011;2586;48.710;9.202;2023-04-15T14:19:08;4.30;;;1.17;;
5135;SDS011;2586;48.710;9.202;2023-04-15T14:21:33;4.23;;;0.93;;
5135;SDS011;2586;48.710;9.202;2023-04-15T14:23:59;1.23;;;0.57;;
5135;SDS011;2586;48.710;9.202;2023-04-15T14:26:24;0.60;;;0.57;;
5135;SDS011;2586;48.710;9.202;2023-04-15T14:28:50;1.53;;;0.90;;
5135;SDS011;2586;48.710;9.202;2023-04-15T14:31:16;0.83;;;0.80;;
5135;SDS011;2586;48.710;9.202;2023-04-15T14:33:42;2.17;;;0.73;;
5135;SDS011;2586;48.710;9.202;2023-04-15T14:36:08;3.70;;;0.93;;
5135;SDS011;2586;48.710;9.202;2023-04-15T14:38:34;6.53;;;1.40;;
5135;SDS011;2586;48.710;9.202;2023-04-15T14:41:06;1.70;;;1.10;;
5135;SDS011;2586;48.710;9.202;2023-04-15T14:43:33;1.60;;;0.70;;
5135;SDS011;2586;48.710;9.202;2023-04-15T14:45:59;2.03;;;0.90;;
5135;SDS011;2586;48.710;9.202;2023-04-15T14:48:24;2.00;;;0.97;;
5135;SDS011;2586;48.710;9.202;2023-04-15T14:50:50;0.80;;;0.77;;
5135;SDS011;2586;48.710;9.202;2023-04-15T14:53:16;1.17;;;1.00;;
5135;SDS011;2586;48.710;9.202;2023-04-15T14:55:42;1.80;;;1.10;;
5135;SDS011;2586;48.710;9.202;2023-04-15T14:58:08;4.23;;;0.80;;
5135;SDS011;2586;48.710;9.202;2023-04-15T15:00:33;1.00;;;0.80;;
5135;SDS011;2586;48.710;9.202;2023-04-15T15:03:00;2.40;;;2.17;;
5135;SDS011;2586;48.710;9.202;2023-04-15T15:05:25;0.90;;;0.90;;
5135;SDS011;2586;48.710;9.202;2023-04-15T15:07:51;3.60;;;1.03;;
5135;SDS011;2586;48.710;9.202;2023-04-15T15:10:17;1.87;;;1.17;;
5135;SDS011;2586;48.710;9.202;2023-04-15T15:12:42;3.03;;;1.37;;
5135;SDS011;2586;48.710;9.202;2023-04-15T15:15:08;5.43;;;1.20;;
5135;SDS011;2586;48.710;9.202;2023-04-15T15:17:34;2.67;;;1.30;;
5135;SDS011;2586;48.710;9.202;2023-04-15T15:20:00;3.10;;;1.40;;
5135;SDS011;2586;48.710;9.202;2023-04-15T15:22:27;2.53;;;1.20;;